Terminal Aerodrome Forecast
Issued by NWS Spokane, WA

Home | Current Version | Previous Version | Text Only | Print | Product List | Glossary On
Versions: 1 2 3 4 5 6 7 8 9 10 11 12 13 14 15 16
000
FTUS46 KOTX 272320
TAFLWS
TAF
KLWS 272320Z 2800/2824 30008KT P6SM VCSH BKN050 BKN080
     FM280300 25006KT P6SM SCT060 SCT100 BKN250
     FM280700 15003KT P6SM SKC
     FM282200 33006KT P6SM BKN060 OVC150=

USA.gov is the U.S. government's official web portal to all federal, state and local government web resources and services.